Time;durP1;ratioP1;P1;durP2;ratioP2;P2;SDS_P1;SDS_P2;PMS_P1;PMS_P2;Temp;Humidity;BMP_temperature;BMP_pressure;BME280_temperature;BME280_humidity;BME280_pressure;Samples;Min_cycle;Max_cycle;Signal;HPM_P1;HPM_P2
2023/01/05 00:01:03;;;;;;;6.75;5.18;;;6.50;66.40;;;;;;5063162;28;20051;-49
2023/01/05 00:03:29;;;;;;;10.55;5.05;;;6.50;66.30;;;;;;5071812;28;20163;-51
2023/01/05 00:06:16;;;;;;;5.88;4.97;;;6.50;66.10;;;;;;5067613;28;20029;-60
2023/01/05 00:08:42;;;;;;;7.55;5.53;;;6.50;66.20;;;;;;5057277;28;20071;-60
2023/01/05 00:22:31;;;;;;;7.78;6.28;;;6.40;66.30;;;;;;5053867;28;20040;-54
2023/01/05 00:25:15;;;;;;;9.50;6.13;;;6.40;66.10;;;;;;5048997;28;20025;-51
2023/01/05 00:27:42;;;;;;;7.82;5.93;;;6.40;66.20;;;;;;5059367;28;20036;-57
2023/01/05 00:30:11;;;;;;;6.95;5.85;;;6.40;66.20;;;;;;5056868;28;20032;-57
2023/01/05 00:32:37;;;;;;;7.78;5.22;;;6.40;66.20;;;;;;5062550;28;20040;-58
2023/01/05 00:35:03;;;;;;;6.95;5.18;;;6.40;66.20;;;;;;5057525;28;20040;-58
2023/01/05 00:37:31;;;;;;;7.35;5.50;;;6.40;66.30;;;;;;5060787;28;20020;-58
2023/01/05 00:39:57;;;;;;;7.90;5.93;;;6.40;66.40;;;;;;5053011;28;20820;-57
2023/01/05 00:42:23;;;;;;;7.35;5.70;;;6.40;66.50;;;;;;5053885;28;20071;-48
2023/01/05 00:44:49;;;;;;;8.80;6.22;;;6.40;66.50;;;;;;5053739;28;20094;-54
2023/01/05 00:47:14;;;;;;;7.80;5.65;;;6.40;66.50;;;;;;5051460;28;20474;-52
2023/01/05 00:49:40;;;;;;;7.18;5.25;;;6.30;66.50;;;;;;5053635;28;20033;-51
2023/01/05 00:52:06;;;;;;;5.70;5.03;;;6.30;66.50;;;;;;5053132;28;20067;-58
2023/01/05 00:54:32;;;;;;;6.30;4.93;;;6.30;66.40;;;;;;5044389;28;20443;-58
2023/01/05 00:56:58;;;;;;;6.85;5.32;;;6.30;66.50;;;;;;5063206;28;20025;-48
2023/01/05 00:59:23;;;;;;;6.07;4.88;;;6.30;66.50;;;;;;5061415;28;20494;-50
2023/01/05 01:01:50;;;;;;;6.15;4.93;;;6.30;66.50;;;;;;5069200;28;20049;-67
2023/01/05 01:04:17;;;;;;;5.63;4.63;;;6.20;66.50;;;;;;5073852;28;20047;-69
2023/01/05 01:06:43;;;;;;;5.72;4.40;;;6.20;66.50;;;;;;5057029;28;20031;-57
2023/01/05 01:09:08;;;;;;;4.90;4.03;;;6.20;66.50;;;;;;5035652;28;20100;-56
2023/01/05 01:11:35;;;;;;;6.43;4.78;;;6.20;66.60;;;;;;5052126;28;20513;-66
2023/01/05 01:14:01;;;;;;;5.57;4.13;;;6.20;66.70;;;;;;5067024;28;20059;-68
2023/01/05 01:16:26;;;;;;;5.63;4.50;;;6.20;66.70;;;;;;5058468;28;20032;-51
2023/01/05 01:18:52;;;;;;;4.97;3.92;;;6.20;66.60;;;;;;5071875;28;20036;-52
2023/01/05 01:21:18;;;;;;;4.80;4.28;;;6.20;66.50;;;;;;5071958;28;20052;-51
2023/01/05 01:23:43;;;;;;;5.93;4.15;;;6.20;66.60;;;;;;5061962;28;20132;-53
2023/01/05 01:26:12;;;;;;;6.05;4.20;;;6.20;66.60;;;;;;5066710;28;20133;-53
2023/01/05 01:28:38;;;;;;;5.82;4.47;;;6.20;66.70;;;;;;5070418;28;20071;-50
2023/01/05 01:31:04;;;;;;;7.22;4.20;;;6.20;66.80;;;;;;5048028;28;20056;-56
2023/01/05 01:33:30;;;;;;;5.55;4.57;;;6.20;66.90;;;;;;5048441;28;20120;-56
2023/01/05 01:35:56;;;;;;;7.32;4.25;;;6.20;66.90;;;;;;5047028;28;20116;-51
2023/01/05 01:38:22;;;;;;;4.60;3.88;;;6.10;66.90;;;;;;5049197;28;20034;-52
2023/01/05 01:40:49;;;;;;;4.57;4.10;;;6.10;66.90;;;;;;5056750;28;20028;-68
2023/01/05 01:43:17;;;;;;;5.15;4.35;;;6.10;67.00;;;;;;5069003;28;20024;-66
2023/01/05 01:45:43;;;;;;;6.07;4.70;;;6.10;67.10;;;;;;5059594;28;20032;-66
2023/01/05 01:48:16;;;;;;;7.22;5.00;;;6.10;67.10;;;;;;5067696;28;20028;-67
2023/01/05 01:50:49;;;;;;;6.72;4.50;;;6.10;67.10;;;;;;5052378;28;20120;-52
2023/01/05 01:53:40;;;;;;;5.95;4.53;;;6.10;67.10;;;;;;5051162;28;20040;-53
2023/01/05 01:56:09;;;;;;;6.82;4.97;;;6.10;67.20;;;;;;5067113;28;20029;-59
2023/01/05 01:58:36;;;;;;;6.45;4.53;;;6.00;67.20;;;;;;5066999;28;20370;-57
2023/01/05 02:01:02;;;;;;;6.80;5.25;;;6.00;67.30;;;;;;5061673;28;20054;-52
2023/01/05 02:03:30;;;;;;;6.72;4.85;;;6.00;67.40;;;;;;5068081;28;20052;-53
2023/01/05 02:05:56;;;;;;;6.55;4.75;;;6.00;67.50;;;;;;5066826;28;20094;-68
2023/01/05 02:08:30;;;;;;;4.93;4.28;;;5.90;67.50;;;;;;5059911;28;20040;-65
2023/01/05 02:11:20;;;;;;;5.93;4.28;;;5.90;67.50;;;;;;5051556;28;20025;-56
2023/01/05 02:14:17;;;;;;;6.07;4.95;;;5.90;67.60;;;;;;5051685;28;20028;-56
2023/01/05 02:17:34;;;;;;;6.28;4.70;;;5.90;67.70;;;;;;5051916;28;20109;-58
2023/01/05 02:20:26;;;;;;;6.07;4.90;;;5.80;67.80;;;;;;5020455;28;20060;-58
2023/01/05 02:23:02;;;;;;;5.38;4.50;;;5.80;67.90;;;;;;5051328;28;20041;-59
2023/01/05 02:26:10;;;;;;;5.15;4.65;;;5.80;68.00;;;;;;5056617;28;20047;-58
2023/01/05 02:28:45;;;;;;;7.28;4.53;;;5.80;67.90;;;;;;5063937;28;20107;-58
2023/01/05 02:31:21;;;;;;;7.22;4.70;;;5.80;68.00;;;;;;5058388;28;20029;-69
2023/01/05 02:33:55;;;;;;;7.93;5.00;;;5.80;68.10;;;;;;5049967;28;20532;-66
2023/01/05 02:36:46;;;;;;;6.38;4.90;;;5.80;68.30;;;;;;5060326;28;20028;-58
2023/01/05 02:39:31;;;;;;;5.07;4.40;;;5.80;68.40;;;;;;5048271;28;20724;-59
2023/01/05 02:42:01;;;;;;;5.18;4.10;;;5.80;68.50;;;;;;5042882;28;20029;-70
2023/01/05 02:44:30;;;;;;;5.93;4.38;;;5.80;68.50;;;;;;5056652;28;20045;-67
2023/01/05 02:47:05;;;;;;;6.10;4.82;;;5.80;68.60;;;;;;5069189;28;20032;-67
2023/01/05 02:49:35;;;;;;;5.38;4.40;;;5.80;68.60;;;;;;5058571;28;20032;-67
2023/01/05 02:52:04;;;;;;;5.88;4.25;;;5.90;68.60;;;;;;5055746;28;20111;-58
2023/01/05 02:54:49;;;;;;;7.60;4.97;;;5.90;68.60;;;;;;5055583;28;20104;-59
2023/01/05 02:57:45;;;;;;;6.35;5.03;;;5.90;68.60;;;;;;5060588;28;20435;-58
2023/01/05 03:00:25;;;;;;;6.25;4.75;;;6.00;68.50;;;;;;5048630;28;20035;-67
2023/01/05 03:02:56;;;;;;;5.47;4.32;;;6.00;68.40;;;;;;5052406;28;20044;-65
2023/01/05 03:05:27;;;;;;;5.47;4.15;;;6.00;68.40;;;;;;5046036;28;20037;-67
2023/01/05 03:08:05;;;;;;;7.27;5.17;;;6.00;68.40;;;;;;5062402;28;20392;-68
2023/01/05 03:13:42;;;;;;;6.53;5.22;;;6.00;68.50;;;;;;5052516;28;20094;-66
2023/01/05 03:16:12;;;;;;;6.63;5.05;;;6.00;68.60;;;;;;5057177;28;20033;-59
2023/01/05 03:19:34;;;;;;;6.10;4.65;;;6.00;68.60;;;;;;5060523;28;20036;-59
2023/01/05 03:21:26;;;;;;;7.45;5.13;;;5.90;68.50;;;;;;5049850;28;20041;-65
2023/01/05 03:35:33;;;;;;;6.75;5.10;;;5.90;68.90;;;;;;5057371;28;20036;-58
2023/01/05 03:38:26;;;;;;;6.65;5.15;;;5.90;68.90;;;;;;5058223;28;20032;-59
2023/01/05 03:40:57;;;;;;;6.85;5.50;;;5.90;68.90;;;;;;5053115;28;20028;-58
2023/01/05 03:43:23;;;;;;;8.35;6.05;;;5.80;68.80;;;;;;5054622;28;20040;-58
2023/01/05 03:45:56;;;;;;;6.60;5.50;;;5.80;68.80;;;;;;5065962;28;20036;-50
2023/01/05 03:48:23;;;;;;;7.53;5.43;;;5.80;69.00;;;;;;5045688;28;20077;-52
2023/01/05 03:50:49;;;;;;;6.70;5.53;;;5.80;69.10;;;;;;5053890;28;20639;-56
2023/01/05 03:53:14;;;;;;;7.18;5.82;;;5.70;69.20;;;;;;5054052;28;20114;-56
2023/01/05 03:55:40;;;;;;;8.30;6.22;;;5.70;69.30;;;;;;5058212;28;20502;-53
2023/01/05 03:58:06;;;;;;;7.53;5.70;;;5.70;69.30;;;;;;5056872;28;20047;-50
2023/01/05 04:00:31;;;;;;;7.70;5.78;;;5.70;69.40;;;;;;5058193;28;20029;-52
2023/01/05 04:02:57;;;;;;;7.88;5.72;;;5.70;69.40;;;;;;5048935;28;20048;-54
2023/01/05 04:05:23;;;;;;;6.80;5.68;;;5.70;69.60;;;;;;5051358;28;20037;-58
2023/01/05 04:07:49;;;;;;;7.15;6.18;;;5.70;69.60;;;;;;5057942;28;20047;-57
2023/01/05 04:10:15;;;;;;;8.93;6.47;;;5.80;69.70;;;;;;5057338;28;20044;-48
2023/01/05 04:12:40;;;;;;;8.85;6.22;;;5.80;69.70;;;;;;5053672;28;20430;-51
2023/01/05 04:15:06;;;;;;;7.72;6.18;;;5.80;69.60;;;;;;5067018;28;20024;-52
2023/01/05 04:17:32;;;;;;;6.05;5.45;;;5.90;69.60;;;;;;5054210;28;20037;-50
2023/01/05 04:19:58;;;;;;;8.20;6.00;;;5.90;69.60;;;;;;5061005;28;20029;-49
2023/01/05 04:22:23;;;;;;;7.65;5.95;;;5.90;69.50;;;;;;5060383;28;20123;-51
2023/01/05 04:24:49;;;;;;;6.57;5.65;;;5.90;69.60;;;;;;5059983;28;20463;-52
2023/01/05 04:27:15;;;;;;;7.20;5.63;;;5.90;69.60;;;;;;5065549;28;20024;-59
2023/01/05 04:29:40;;;;;;;7.10;5.32;;;5.90;69.60;;;;;;5063586;28;20414;-58
2023/01/05 04:32:06;;;;;;;6.95;5.35;;;5.90;69.70;;;;;;5053226;28;20457;-58
2023/01/05 04:34:32;;;;;;;7.70;5.97;;;5.90;69.80;;;;;;5057355;28;20431;-59
2023/01/05 04:36:57;;;;;;;7.82;5.88;;;5.90;69.70;;;;;;5052881;28;20114;-57
2023/01/05 04:39:23;;;;;;;8.75;6.03;;;5.90;69.80;;;;;;5053680;28;20108;-56
2023/01/05 04:41:49;;;;;;;7.00;5.18;;;5.90;69.80;;;;;;5048410;28;20464;-58
2023/01/05 04:44:15;;;;;;;6.70;5.05;;;5.90;70.00;;;;;;5059515;28;20024;-59
2023/01/05 04:46:41;;;;;;;5.90;5.07;;;5.90;70.10;;;;;;5038982;28;20043;-56
2023/01/05 04:49:08;;;;;;;7.78;5.80;;;5.90;70.30;;;;;;5052308;28;20025;-56
2023/01/05 04:51:34;;;;;;;6.65;5.72;;;5.90;70.20;;;;;;5044041;28;20040;-48
2023/01/05 04:53:59;;;;;;;6.93;5.68;;;5.90;70.30;;;;;;5053123;28;20029;-48
2023/01/05 04:56:25;;;;;;;7.25;5.68;;;5.90;70.30;;;;;;5053725;28;20029;-56
2023/01/05 04:58:50;;;;;;;7.53;6.00;;;5.90;70.30;;;;;;5059035;28;20037;-56
2023/01/05 05:01:16;;;;;;;10.45;7.38;;;5.90;70.40;;;;;;5063793;28;20021;-53
2023/01/05 05:03:42;;;;;;;9.07;6.97;;;5.90;70.50;;;;;;5052560;28;20083;-52
2023/01/05 05:06:07;;;;;;;9.25;6.95;;;5.90;70.50;;;;;;5051121;28;20029;-55
2023/01/05 05:08:33;;;;;;;7.97;7.00;;;5.90;70.60;;;;;;5047905;28;20022;-56
2023/01/05 05:10:59;;;;;;;8.25;6.05;;;5.90;70.70;;;;;;5052235;28;20471;-56
2023/01/05 05:13:25;;;;;;;9.20;6.50;;;5.90;70.70;;;;;;5053809;28;20064;-56
2023/01/05 05:15:50;;;;;;;8.55;6.57;;;6.00;70.80;;;;;;5054368;28;20052;-59
2023/01/05 05:18:16;;;;;;;8.13;6.45;;;5.90;70.80;;;;;;5053235;28;20040;-58
2023/01/05 05:20:44;;;;;;;8.40;6.80;;;6.00;70.90;;;;;;5055851;28;20059;-50
2023/01/05 05:23:10;;;;;;;9.10;6.38;;;6.00;70.90;;;;;;5053425;28;20459;-48
2023/01/05 05:25:35;;;;;;;8.00;6.90;;;6.00;70.90;;;;;;5051948;28;20078;-67
2023/01/05 05:28:01;;;;;;;7.85;5.97;;;6.00;70.90;;;;;;5065774;28;20312;-65
2023/01/05 05:30:27;;;;;;;9.90;7.40;;;6.00;71.00;;;;;;5052976;28;20028;-66
2023/01/05 05:32:52;;;;;;;9.80;6.88;;;6.00;71.10;;;;;;5041150;28;20025;-66
2023/01/05 05:35:18;;;;;;;10.30;6.55;;;6.00;71.20;;;;;;5054827;28;20064;-58
2023/01/05 05:37:44;;;;;;;7.85;6.03;;;6.00;71.10;;;;;;5060163;28;20032;-59
2023/01/05 05:40:11;;;;;;;9.27;7.22;;;6.00;71.10;;;;;;5059490;28;20200;-57
2023/01/05 05:42:37;;;;;;;8.77;6.65;;;6.00;71.30;;;;;;5062864;28;20033;-53
2023/01/05 05:45:03;;;;;;;9.25;6.93;;;6.00;71.30;;;;;;5051990;28;20032;-50
2023/01/05 05:47:28;;;;;;;9.18;7.35;;;6.00;71.30;;;;;;5048757;28;20064;-56
2023/01/05 05:49:54;;;;;;;8.95;7.10;;;6.10;71.30;;;;;;5051920;28;20625;-57
2023/01/05 05:52:19;;;;;;;8.38;6.25;;;6.10;71.30;;;;;;5058677;28;20033;-58
2023/01/05 05:54:45;;;;;;;11.82;6.63;;;6.00;71.20;;;;;;5050741;28;20112;-59
2023/01/05 05:57:11;;;;;;;7.90;6.32;;;6.10;71.30;;;;;;5051569;28;20116;-58
2023/01/05 05:59:37;;;;;;;9.80;7.18;;;6.10;71.40;;;;;;5051619;28;20037;-57
2023/01/05 06:02:02;;;;;;;7.05;6.07;;;6.10;72.20;;;;;;5048704;28;20127;-58
2023/01/05 06:04:28;;;;;;;9.10;7.07;;;6.10;71.50;;;;;;5046049;28;20472;-59
2023/01/05 06:06:54;;;;;;;9.05;7.22;;;6.10;71.60;;;;;;5045553;28;20029;-61
2023/01/05 06:09:19;;;;;;;9.77;7.85;;;6.20;72.20;;;;;;5055130;28;20029;-60
2023/01/05 06:11:45;;;;;;;10.40;8.20;;;6.20;71.50;;;;;;5050865;28;20375;-59
2023/01/05 06:14:11;;;;;;;8.63;6.78;;;6.20;71.40;;;;;;5057397;28;20027;-60
2023/01/05 06:16:37;;;;;;;10.60;7.97;;;6.20;71.40;;;;;;5053549;28;20423;-60
2023/01/05 06:19:02;;;;;;;10.10;7.28;;;6.30;71.40;;;;;;5056783;28;20027;-60
2023/01/05 06:21:28;;;;;;;9.15;7.63;;;6.30;71.40;;;;;;5060384;28;20484;-67
2023/01/05 06:23:54;;;;;;;9.23;7.65;;;6.30;71.50;;;;;;5063615;28;20021;-67
2023/01/05 06:26:20;;;;;;;10.05;7.13;;;6.30;71.60;;;;;;5046048;28;20036;-58
2023/01/05 06:28:45;;;;;;;8.68;7.78;;;6.30;71.50;;;;;;5045278;28;20039;-59
2023/01/05 06:31:11;;;;;;;9.25;7.20;;;6.30;71.40;;;;;;5054088;28;20021;-68
2023/01/05 06:33:37;;;;;;;9.40;7.93;;;6.30;71.30;;;;;;5064155;28;20210;-69
2023/01/05 06:36:03;;;;;;;10.85;8.57;;;6.30;71.60;;;;;;5060938;28;20537;-59
2023/01/05 06:38:29;;;;;;;9.43;8.38;;;6.30;71.50;;;;;;5050976;28;20029;-60
2023/01/05 06:40:54;;;;;;;12.60;8.95;;;6.40;71.50;;;;;;5052683;28;20033;-58
2023/01/05 06:43:20;;;;;;;10.75;7.82;;;6.40;71.30;;;;;;5042282;28;20037;-58
2023/01/05 06:45:46;;;;;;;11.55;8.15;;;6.40;71.30;;;;;;5053039;28;20025;-58
2023/01/05 06:48:12;;;;;;;9.82;7.70;;;6.40;71.40;;;;;;5052204;28;20025;-60
2023/01/05 06:50:38;;;;;;;9.77;7.78;;;6.40;71.50;;;;;;5049841;28;20029;-55
2023/01/05 06:53:04;;;;;;;10.93;7.93;;;6.40;71.50;;;;;;5054576;28;20033;-51
2023/01/05 06:55:29;;;;;;;11.50;8.23;;;6.50;71.60;;;;;;5042538;28;20029;-52
2023/01/05 06:57:55;;;;;;;10.85;8.18;;;6.40;71.60;;;;;;5038007;28;20048;-55
2023/01/05 07:00:21;;;;;;;10.02;7.72;;;6.40;71.50;;;;;;5046129;28;20069;-57
2023/01/05 07:02:47;;;;;;;10.07;7.75;;;6.40;71.60;;;;;;5045454;28;20041;-57
2023/01/05 07:05:12;;;;;;;13.70;8.93;;;6.30;71.70;;;;;;5040094;28;20510;-59
2023/01/05 07:07:38;;;;;;;9.57;7.88;;;6.30;71.90;;;;;;5038203;28;20029;-58
2023/01/05 07:10:04;;;;;;;10.00;7.60;;;6.30;72.10;;;;;;5042290;28;20048;-58
2023/01/05 07:12:30;;;;;;;12.52;8.57;;;6.30;72.20;;;;;;5042842;28;20036;-59
2023/01/05 07:14:56;;;;;;;11.07;7.95;;;6.20;72.40;;;;;;5039348;28;20071;-59
2023/01/05 07:17:21;;;;;;;10.18;8.40;;;6.20;72.60;;;;;;5054459;28;20037;-68
2023/01/05 07:19:47;;;;;;;10.43;8.02;;;6.20;72.70;;;;;;5044227;28;20033;-63
2023/01/05 07:22:13;;;;;;;11.57;8.20;;;6.10;72.80;;;;;;5044308;28;20075;-61
2023/01/05 07:24:38;;;;;;;12.55;8.05;;;6.10;73.00;;;;;;5043395;28;20689;-62
2023/01/05 07:27:04;;;;;;;11.93;8.55;;;6.10;73.40;;;;;;5035640;28;20039;-54
2023/01/05 07:29:30;;;;;;;10.48;7.88;;;6.00;73.60;;;;;;5039460;28;20036;-57
2023/01/05 07:31:55;;;;;;;11.13;8.52;;;6.00;73.70;;;;;;5021741;28;20032;-58
2023/01/05 07:34:22;;;;;;;9.90;8.45;;;6.00;73.90;;;;;;5041976;28;20495;-58
2023/01/05 07:36:48;;;;;;;11.00;8.50;;;6.00;73.90;;;;;;5060111;28;20362;-57
2023/01/05 07:39:14;;;;;;;10.95;9.23;;;6.10;74.00;;;;;;5033921;28;20701;-57
2023/01/05 07:41:40;;;;;;;9.50;7.45;;;6.10;74.80;;;;;;5040461;28;20029;-53
2023/01/05 07:44:06;;;;;;;10.82;8.77;;;6.10;74.20;;;;;;5046044;28;20047;-55
2023/01/05 07:46:32;;;;;;;10.63;8.73;;;6.10;74.30;;;;;;5043290;28;20044;-53
2023/01/05 07:48:58;;;;;;;12.25;9.25;;;6.10;74.40;;;;;;5044952;28;20047;-54
2023/01/05 07:51:24;;;;;;;11.77;8.77;;;6.10;74.40;;;;;;5028445;28;20037;-58
2023/01/05 07:53:49;;;;;;;10.40;8.32;;;6.10;74.40;;;;;;5039965;28;20028;-53
2023/01/05 07:56:15;;;;;;;11.57;8.98;;;6.10;74.80;;;;;;5039659;28;20498;-58
2023/01/05 07:58:41;;;;;;;10.85;8.00;;;6.10;75.50;;;;;;5036399;28;20115;-57
2023/01/05 08:01:09;;;;;;;12.68;9.13;;;6.10;74.90;;;;;;5033411;28;20044;-57
2023/01/05 08:03:35;;;;;;;11.20;8.65;;;6.20;75.00;;;;;;5028465;28;20056;-56
2023/01/05 08:06:09;;;;;;;10.15;7.90;;;6.20;75.00;;;;;;5039890;28;20460;-59
2023/01/05 08:08:35;;;;;;;10.10;8.02;;;6.30;75.10;;;;;;5030610;28;20872;-59
2023/01/05 08:11:06;;;;;;;10.52;8.70;;;6.30;75.10;;;;;;5041461;28;20034;-50
2023/01/05 08:16:16;;;;;;;11.18;9.00;;;6.30;75.20;;;;;;5035011;28;20075;-55
2023/01/05 08:18:41;;;;;;;12.38;9.32;;;6.30;75.10;;;;;;5022613;28;20047;-58
2023/01/05 08:21:08;;;;;;;11.43;8.30;;;6.40;75.30;;;;;;5015730;28;20063;-56
2023/01/05 08:23:34;;;;;;;11.90;8.52;;;6.40;75.50;;;;;;5023411;28;20072;-55
2023/01/05 08:26:21;;;;;;;10.13;8.70;;;6.40;75.50;;;;;;5026576;28;20040;-52
2023/01/05 08:28:47;;;;;;;11.82;8.68;;;6.40;75.40;;;;;;5027318;28;20036;-53
2023/01/05 08:31:16;;;;;;;11.52;8.75;;;6.40;75.50;;;;;;5031738;28;21060;-57
2023/01/05 08:33:43;;;;;;;11.73;8.93;;;6.40;75.80;;;;;;5034791;28;20041;-56
2023/01/05 08:36:10;;;;;;;11.50;8.93;;;6.50;76.00;;;;;;5031709;28;20098;-59
2023/01/05 08:38:36;;;;;;;11.93;8.88;;;6.50;76.00;;;;;;5034210;28;20106;-58
2023/01/05 08:41:02;;;;;;;10.98;9.00;;;6.50;76.00;;;;;;5035886;28;20164;-58
2023/01/05 08:43:28;;;;;;;10.10;8.35;;;6.50;76.10;;;;;;5033165;28;20809;-59
2023/01/05 08:45:54;;;;;;;15.13;8.75;;;6.50;76.10;;;;;;5037481;28;20029;-59
2023/01/05 08:48:20;;;;;;;12.05;9.40;;;6.60;76.30;;;;;;5032554;28;21681;-58
2023/01/05 08:50:45;;;;;;;12.45;9.00;;;6.60;76.30;;;;;;5035181;28;20075;-57
2023/01/05 08:53:11;;;;;;;12.07;9.27;;;6.70;76.40;;;;;;5033106;28;20041;-58
2023/01/05 08:55:37;;;;;;;12.93;9.27;;;6.70;76.40;;;;;;5035927;28;20048;-56
2023/01/05 08:58:05;;;;;;;10.77;7.95;;;6.70;76.20;;;;;;5026515;28;20466;-55
2023/01/05 09:00:30;;;;;;;9.75;8.10;;;6.80;76.10;;;;;;5031903;28;20046;-57
2023/01/05 09:02:56;;;;;;;10.93;8.57;;;6.80;76.20;;;;;;5030408;28;20376;-56
2023/01/05 09:05:22;;;;;;;10.88;8.70;;;6.80;76.40;;;;;;5031101;28;20068;-55
2023/01/05 09:07:47;;;;;;;10.73;8.15;;;6.80;76.40;;;;;;5038522;28;20399;-57
2023/01/05 09:10:13;;;;;;;10.52;8.50;;;6.90;76.40;;;;;;5038016;28;20036;-51
2023/01/05 09:12:38;;;;;;;12.57;9.70;;;7.00;76.40;;;;;;5022556;28;20048;-52
2023/01/05 09:15:05;;;;;;;12.43;9.60;;;7.00;76.20;;;;;;5025836;28;20044;-53
2023/01/05 09:17:32;;;;;;;11.93;9.02;;;7.10;76.00;;;;;;5026845;28;20128;-58
2023/01/05 09:19:58;;;;;;;11.18;9.43;;;7.10;75.90;;;;;;5032531;28;20024;-54
2023/01/05 09:22:23;;;;;;;12.32;9.80;;;7.10;75.90;;;;;;5030385;28;20075;-54
2023/01/05 09:24:49;;;;;;;11.60;9.18;;;7.10;75.90;;;;;;5024444;28;20107;-56
2023/01/05 09:27:15;;;;;;;13.30;9.50;;;7.10;76.00;;;;;;5035292;28;20392;-52
2023/01/05 09:29:40;;;;;;;11.93;9.48;;;7.10;76.10;;;;;;5027404;28;20041;-57
2023/01/05 09:32:06;;;;;;;11.40;9.25;;;7.10;76.90;;;;;;5033790;28;20047;-55
2023/01/05 09:34:32;;;;;;;12.35;9.63;;;7.10;76.20;;;;;;5031355;28;21669;-53
2023/01/05 09:36:58;;;;;;;12.38;9.60;;;7.10;76.30;;;;;;5031080;28;20045;-51
2023/01/05 09:39:23;;;;;;;13.02;9.02;;;7.10;76.30;;;;;;5022349;28;20041;-55
2023/01/05 09:41:59;;;;;;;11.20;8.60;;;7.20;76.30;;;;;;5019339;28;20183;-52
2023/01/05 09:44:36;;;;;;;11.57;9.27;;;7.20;76.20;;;;;;5020135;28;20060;-56
2023/01/05 09:47:17;;;;;;;12.02;9.20;;;7.10;76.30;;;;;;5020193;28;20041;-56
2023/01/05 09:49:46;;;;;;;10.48;8.55;;;7.10;76.50;;;;;;5021528;28;20475;-57
2023/01/05 09:52:12;;;;;;;12.50;9.10;;;7.10;76.60;;;;;;5026154;28;20052;-56
2023/01/05 09:54:39;;;;;;;11.80;9.27;;;7.20;76.70;;;;;;5016878;28;20882;-57
2023/01/05 09:57:13;;;;;;;13.80;10.98;;;7.20;76.90;;;;;;5018228;28;20430;-57
2023/01/05 09:59:45;;;;;;;12.50;10.00;;;7.20;76.90;;;;;;5018863;28;20032;-57
2023/01/05 10:02:41;;;;;;;11.27;9.55;;;7.20;76.90;;;;;;5024294;28;20063;-56
2023/01/05 10:05:11;;;;;;;12.88;9.80;;;7.20;77.00;;;;;;5024469;28;20028;-57
2023/01/05 10:07:41;;;;;;;12.27;9.65;;;7.20;77.10;;;;;;5027876;28;20047;-56
2023/01/05 10:10:31;;;;;;;11.32;9.27;;;7.20;77.10;;;;;;5025606;28;20501;-57
2023/01/05 10:13:04;;;;;;;14.52;9.45;;;7.20;77.20;;;;;;5020801;28;20071;-55
2023/01/05 10:15:38;;;;;;;11.98;9.23;;;7.20;77.50;;;;;;5020141;28;20464;-56
2023/01/05 10:18:23;;;;;;;11.38;8.43;;;7.20;77.40;;;;;;5018902;28;20485;-56
2023/01/05 10:20:59;;;;;;;10.85;8.05;;;7.20;77.50;;;;;;5028843;28;20507;-57
2023/01/05 10:23:32;;;;;;;12.30;9.15;;;7.10;77.70;;;;;;5023150;28;20859;-55
2023/01/05 10:26:19;;;;;;;10.77;8.85;;;7.10;77.80;;;;;;5022669;28;20033;-64
2023/01/05 10:29:05;;;;;;;10.55;8.38;;;7.10;77.90;;;;;;5023057;28;20029;-64
2023/01/05 10:31:45;;;;;;;10.88;8.15;;;7.10;78.00;;;;;;5014214;28;20041;-63
2023/01/05 10:34:20;;;;;;;10.90;8.63;;;7.10;78.20;;;;;;5026698;28;20056;-62
2023/01/05 10:37:01;;;;;;;11.93;8.45;;;7.20;78.20;;;;;;5029496;28;20029;-56
2023/01/05 10:39:45;;;;;;;10.43;8.15;;;7.20;78.20;;;;;;5025528;28;20091;-57
2023/01/05 10:42:26;;;;;;;12.23;9.38;;;7.10;78.00;;;;;;5016589;28;20045;-58
2023/01/05 10:44:55;;;;;;;10.48;8.80;;;7.10;78.00;;;;;;5018454;28;20036;-56
2023/01/05 10:47:23;;;;;;;10.85;8.52;;;7.10;78.10;;;;;;5024531;28;20124;-54
2023/01/05 10:49:50;;;;;;;11.52;8.30;;;7.10;78.20;;;;;;5003842;28;20118;-55
2023/01/05 10:52:21;;;;;;;12.07;8.75;;;7.10;78.30;;;;;;5018575;28;20036;-55
2023/01/05 10:54:55;;;;;;;10.65;8.27;;;7.10;78.40;;;;;;5025074;28;20515;-56
2023/01/05 10:57:34;;;;;;;11.32;8.48;;;7.00;78.50;;;;;;5030588;28;20032;-57
2023/01/05 11:00:04;;;;;;;9.35;8.10;;;7.00;78.60;;;;;;5024989;28;20215;-54
2023/01/05 11:02:34;;;;;;;10.95;8.40;;;7.00;78.70;;;;;;5022245;28;20085;-50
2023/01/05 11:05:11;;;;;;;11.18;8.60;;;7.00;78.80;;;;;;5014888;28;20033;-56
2023/01/05 11:07:57;;;;;;;10.90;8.18;;;7.00;78.80;;;;;;5026414;28;21587;-53
2023/01/05 11:10:38;;;;;;;11.57;8.52;;;7.00;78.70;;;;;;5012270;28;20147;-57
2023/01/05 11:13:14;;;;;;;9.75;8.23;;;7.10;79.00;;;;;;5012604;28;20037;-57
2023/01/05 11:15:44;;;;;;;11.05;8.07;;;7.10;79.00;;;;;;5017836;28;21072;-55
2023/01/05 11:18:23;;;;;;;11.40;7.63;;;7.10;79.10;;;;;;5024456;28;20167;-54
2023/01/05 11:21:06;;;;;;;10.50;8.25;;;7.20;79.00;;;;;;5019718;28;20037;-57
2023/01/05 11:23:35;;;;;;;9.80;8.23;;;7.20;79.00;;;;;;5023156;28;20128;-57
2023/01/05 11:26:31;;;;;;;10.32;8.00;;;7.20;79.20;;;;;;5024405;28;20029;-57
2023/01/05 11:29:10;;;;;;;10.52;8.52;;;7.20;78.90;;;;;;5021196;28;20514;-56
2023/01/05 11:31:44;;;;;;;12.27;8.55;;;7.30;78.90;;;;;;5016409;28;20044;-54
2023/01/05 11:34:21;;;;;;;11.55;8.73;;;7.30;79.10;;;;;;5036491;28;20036;-57
2023/01/05 11:37:19;;;;;;;9.55;7.55;;;7.30;79.10;;;;;;5029819;28;20028;-58
2023/01/05 11:39:54;;;;;;;15.95;12.60;;;7.30;79.00;;;;;;5007897;28;20045;-57
2023/01/05 11:42:27;;;;;;;12.25;9.23;;;7.40;79.20;;;;;;5026497;28;20041;-56
2023/01/05 11:44:58;;;;;;;13.30;9.25;;;7.40;79.20;;;;;;5030265;28;20028;-57
2023/01/05 11:47:24;;;;;;;10.68;8.30;;;7.50;79.20;;;;;;5036004;28;20033;-51
2023/01/05 11:50:00;;;;;;;11.25;8.68;;;7.50;79.30;;;;;;5032897;28;20036;-54
2023/01/05 11:52:32;;;;;;;11.23;8.25;;;7.50;79.20;;;;;;5035740;28;20045;-54
2023/01/05 11:54:58;;;;;;;11.70;8.85;;;7.50;80.00;;;;;;5018673;28;20029;-54
2023/01/05 11:57:25;;;;;;;10.70;8.48;;;7.50;79.50;;;;;;5037626;28;20044;-56
2023/01/05 11:59:53;;;;;;;11.40;8.82;;;7.60;79.50;;;;;;5035473;28;20025;-56
2023/01/05 12:03:09;;;;;;;10.98;8.30;;;7.50;79.50;;;;;;5018436;28;20044;-57
2023/01/05 12:05:38;;;;;;;10.23;7.57;;;7.60;79.50;;;;;;5004889;28;20041;-56
2023/01/05 12:08:17;;;;;;;11.68;8.50;;;7.60;79.50;;;;;;5032567;28;20535;-54
2023/01/05 12:10:54;;;;;;;9.75;8.07;;;7.60;79.60;;;;;;5036569;28;20112;-55
2023/01/05 12:13:39;;;;;;;10.68;7.85;;;7.60;79.90;;;;;;5046629;28;20431;-54
2023/01/05 12:16:05;;;;;;;10.35;8.35;;;7.60;79.80;;;;;;5028467;28;20063;-54
2023/01/05 12:18:46;;;;;;;10.32;7.68;;;7.50;80.00;;;;;;5044254;28;20383;-56
2023/01/05 12:21:14;;;;;;;10.63;8.38;;;7.50;80.10;;;;;;5038142;28;21416;-55
2023/01/05 12:23:49;;;;;;;9.18;7.50;;;7.50;80.40;;;;;;5039773;28;20092;-56
2023/01/05 12:26:22;;;;;;;11.32;8.27;;;7.50;80.40;;;;;;5039138;28;20037;-51
2023/01/05 12:29:02;;;;;;;8.75;7.68;;;7.50;80.60;;;;;;5031153;28;20148;-52
2023/01/05 12:31:53;;;;;;;10.23;7.90;;;7.50;80.60;;;;;;5025359;28;20105;-56
2023/01/05 12:34:54;;;;;;;10.15;8.05;;;7.50;80.70;;;;;;5029437;28;20078;-53
2023/01/05 12:37:34;;;;;;;9.93;7.28;;;7.50;80.80;;;;;;5030020;28;20376;-48
2023/01/05 12:40:21;;;;;;;9.25;7.25;;;7.50;81.00;;;;;;5033797;28;20036;-52
2023/01/05 12:42:49;;;;;;;9.45;7.70;;;7.60;81.10;;;;;;5042299;28;20033;-67
2023/01/05 12:45:18;;;;;;;10.27;7.80;;;7.60;81.20;;;;;;5030707;28;20037;-68
2023/01/05 12:47:46;;;;;;;9.27;7.65;;;7.60;81.30;;;;;;5037739;28;20030;-65
2023/01/05 12:50:22;;;;;;;8.75;7.15;;;7.60;81.40;;;;;;5029095;28;20033;-64
2023/01/05 12:52:57;;;;;;;9.63;7.15;;;7.70;82.20;;;;;;5032918;28;20036;-66
2023/01/05 12:55:40;;;;;;;10.68;8.05;;;7.60;81.70;;;;;;5031932;28;20582;-64
2023/01/05 12:58:32;;;;;;;8.65;6.65;;;7.70;81.70;;;;;;5040324;28;20041;-65
2023/01/05 13:00:59;;;;;;;9.90;7.72;;;7.70;81.70;;;;;;5033152;28;20042;-56
2023/01/05 13:03:40;;;;;;;10.88;6.95;;;7.70;81.80;;;;;;5028974;28;20057;-54
2023/01/05 13:06:09;;;;;;;8.65;6.45;;;7.80;81.90;;;;;;5029577;28;20068;-58
2023/01/05 13:08:43;;;;;;;7.47;6.32;;;7.90;82.40;;;;;;5013986;28;20033;-54
2023/01/05 13:11:35;;;;;;;8.23;6.68;;;7.90;81.70;;;;;;5018147;28;20414;-55
2023/01/05 13:14:16;;;;;;;8.43;6.60;;;8.00;81.70;;;;;;5027870;28;20067;-58
2023/01/05 13:16:49;;;;;;;9.10;7.03;;;8.00;81.50;;;;;;5035307;28;21272;-58
2023/01/05 13:19:24;;;;;;;8.05;5.88;;;8.10;81.50;;;;;;5044269;28;20037;-58
2023/01/05 13:21:51;;;;;;;7.72;6.03;;;8.20;81.60;;;;;;5040815;28;20482;-53
2023/01/05 13:24:27;;;;;;;9.50;7.15;;;8.10;81.60;;;;;;5028587;28;20041;-57
2023/01/05 13:26:54;;;;;;;8.27;6.40;;;8.10;81.70;;;;;;5023419;28;20129;-50
2023/01/05 13:29:42;;;;;;;7.28;5.93;;;8.10;81.70;;;;;;5035130;28;20024;-54
2023/01/05 13:32:28;;;;;;;8.02;6.10;;;8.20;81.80;;;;;;5024541;28;20075;-55
2023/01/05 13:35:32;;;;;;;6.65;5.72;;;8.30;81.80;;;;;;5030069;28;20021;-56
2023/01/05 13:38:09;;;;;;;9.18;6.55;;;8.30;81.50;;;;;;4987923;28;20029;-57
2023/01/05 13:40:49;;;;;;;8.30;6.32;;;8.30;81.50;;;;;;4993981;28;20080;-57